Time;durP1;ratioP1;P1;durP2;ratioP2;P2;SDS_P1;SDS_P2;PMS_P1;PMS_P2;Temp;Humidity;BMP_temperature;BMP_pressure;BME280_temperature;BME280_humidity;BME280_pressure;Samples;Min_cycle;Max_cycle;Signal;HPM_P1;HPM_P2
2023/01/05 00:02:21;0.00;0.00;0.62;0.00;0.00;0.62;1.70;1.30;;;24.30;27.90;;;;;;2255676;61;20381;-64
2023/01/05 00:05:07;0.00;0.00;0.62;0.00;0.00;0.62;2.70;1.30;;;24.30;27.80;;;;;;2255160;61;20421;-63
2023/01/05 00:07:51;0.00;0.00;0.62;0.00;0.00;0.62;2.67;1.40;;;24.30;27.90;;;;;;2255860;61;20370;-64
2023/01/05 00:22:53;0.00;0.00;0.62;0.00;0.00;0.62;2.70;1.30;;;24.40;27.90;;;;;;2255416;61;20512;-65
2023/01/05 00:25:40;0.00;0.00;0.62;0.00;0.00;0.62;2.73;1.50;;;24.40;27.90;;;;;;2255301;61;20389;-64
2023/01/05 00:28:25;0.00;0.00;0.62;0.00;0.00;0.62;2.20;1.40;;;24.40;27.90;;;;;;2255594;61;20366;-65
2023/01/05 00:31:09;0.00;0.00;0.62;0.00;0.00;0.62;2.13;1.20;;;24.40;27.90;;;;;;2255740;61;20768;-65
2023/01/05 00:33:55;0.00;0.00;0.62;0.00;0.00;0.62;2.90;1.57;;;24.40;27.90;;;;;;2254669;61;20366;-64
2023/01/05 00:36:40;0.00;0.00;0.62;0.00;0.00;0.62;2.40;1.23;;;24.40;27.90;;;;;;2255840;61;20385;-64
2023/01/05 00:39:25;0.00;0.00;0.62;0.00;0.00;0.62;2.43;1.27;;;24.50;28.00;;;;;;2255188;61;20965;-64
2023/01/05 00:42:11;0.00;0.00;0.62;0.00;0.00;0.62;3.60;1.40;;;24.40;27.90;;;;;;2255401;61;20354;-63
2023/01/05 00:44:56;0.00;0.00;0.62;0.00;0.00;0.62;3.10;1.20;;;24.40;27.90;;;;;;2255637;61;20838;-63
2023/01/05 00:47:42;0.00;0.00;0.62;0.00;0.00;0.62;3.00;1.90;;;24.50;28.00;;;;;;2255269;61;20370;-63
2023/01/05 00:50:29;0.00;0.00;0.62;0.00;0.00;0.62;2.60;1.40;;;24.50;27.90;;;;;;2255371;61;20354;-62
2023/01/05 00:53:13;0.00;0.00;0.62;0.00;0.00;0.62;2.60;1.60;;;24.50;27.90;;;;;;2255532;61;20389;-62
2023/01/05 00:55:58;0.00;0.00;0.62;0.00;0.00;0.62;2.47;1.60;;;24.50;27.90;;;;;;2255058;61;20477;-63
2023/01/05 00:58:43;0.00;0.00;0.62;0.00;0.00;0.62;3.67;2.30;;;24.50;27.90;;;;;;2255571;61;20909;-63
2023/01/05 01:01:28;0.00;0.00;0.62;0.00;0.00;0.62;5.00;2.43;;;24.50;27.80;;;;;;2255357;61;20417;-64
2023/01/05 01:04:14;0.00;0.00;0.62;0.00;0.00;0.62;4.00;2.43;;;24.50;27.70;;;;;;2255653;61;20366;-62
2023/01/05 01:07:02;0.00;0.00;0.62;0.00;0.00;0.62;5.70;2.10;;;24.40;27.50;;;;;;2254986;61;20365;-63
2023/01/05 01:09:46;0.00;0.00;0.62;0.00;0.00;0.62;5.60;2.90;;;24.40;27.50;;;;;;2254697;61;20875;-63
2023/01/05 01:12:31;0.00;0.00;0.62;0.00;0.00;0.62;5.70;2.07;;;24.30;27.40;;;;;;2254897;61;20398;-64
2023/01/05 01:15:16;0.00;0.00;0.62;0.00;0.00;0.62;6.53;2.40;;;24.30;27.40;;;;;;2255187;61;20487;-64
2023/01/05 01:18:00;0.00;0.00;0.62;0.00;0.00;0.62;6.97;2.20;;;24.20;27.30;;;;;;2254766;61;20385;-63
2023/01/05 01:20:45;0.00;0.00;0.62;0.00;0.00;0.62;4.67;2.20;;;24.10;27.30;;;;;;2255143;61;20373;-64
2023/01/05 01:23:33;0.00;0.00;0.62;0.00;0.00;0.62;7.27;2.70;;;24.10;27.30;;;;;;2255443;61;20773;-63
2023/01/05 01:26:17;0.00;0.00;0.62;0.00;0.00;0.62;6.07;2.63;;;24.00;27.20;;;;;;2255134;61;20433;-63
2023/01/05 01:29:03;0.00;0.00;0.62;0.00;0.00;0.62;3.70;2.00;;;23.90;27.20;;;;;;2255493;61;20450;-64
2023/01/05 01:31:29;0.00;0.00;0.62;0.00;0.00;0.62;8.03;2.70;;;23.80;27.70;;;;;;2255243;61;20351;-63
2023/01/05 01:34:16;0.00;0.00;0.62;0.00;0.00;0.62;8.47;2.53;;;23.70;27.20;;;;;;2254830;61;20377;-64
2023/01/05 01:37:01;0.00;0.00;0.62;0.00;0.00;0.62;9.33;2.80;;;23.70;27.30;;;;;;2255135;61;20365;-63
2023/01/05 01:39:52;0.00;0.00;0.62;0.00;0.00;0.62;7.80;2.40;;;23.60;27.30;;;;;;2254620;61;20390;-64
2023/01/05 01:42:37;0.00;0.00;0.62;0.00;0.00;0.62;7.47;3.10;;;23.50;27.30;;;;;;2254772;61;20416;-64
2023/01/05 01:45:24;0.00;0.00;0.62;0.00;0.00;0.62;7.63;2.53;;;23.50;27.40;;;;;;2255056;61;20437;-64
2023/01/05 01:48:16;0.00;0.00;0.62;0.00;0.00;0.62;4.83;2.63;;;23.40;27.40;;;;;;2254895;61;20447;-62
2023/01/05 01:51:05;0.00;0.00;0.62;0.00;0.00;0.62;6.13;2.70;;;23.30;27.40;;;;;;2254837;61;20458;-63
2023/01/05 01:53:54;0.00;0.00;0.62;0.00;0.00;0.62;6.90;2.90;;;23.20;27.50;;;;;;2254567;61;20397;-63
2023/01/05 01:56:46;0.00;0.00;0.62;0.00;0.00;0.62;6.20;2.60;;;23.10;27.50;;;;;;2254869;61;20382;-64
2023/01/05 01:59:31;0.00;0.00;0.62;0.00;0.00;0.62;6.90;2.27;;;23.10;27.60;;;;;;2255545;61;20847;-64
2023/01/05 02:02:16;0.00;0.00;0.62;0.00;0.00;0.62;9.30;2.40;;;23.00;27.60;;;;;;2255065;61;20408;-63
2023/01/05 02:05:08;0.00;0.00;0.62;0.00;0.00;0.62;8.97;3.20;;;22.90;27.70;;;;;;2255364;61;20388;-63
2023/01/05 02:07:53;0.00;0.00;0.62;0.00;0.00;0.62;6.57;2.40;;;22.90;27.90;;;;;;2255124;61;20369;-63
2023/01/05 02:10:54;0.00;0.00;0.62;0.00;0.00;0.62;5.63;2.77;;;22.80;27.90;;;;;;2252445;61;20417;-63
2023/01/05 02:14:00;0.00;0.00;0.62;0.00;0.00;0.62;6.37;2.83;;;22.70;28.00;;;;;;2255316;61;20358;-63
2023/01/05 02:16:59;0.00;0.00;0.62;0.00;0.00;0.62;8.10;3.07;;;22.60;28.10;;;;;;2255066;61;20440;-63
2023/01/05 02:20:26;0.00;0.00;0.62;0.00;0.00;0.62;5.70;2.67;;;22.60;28.30;;;;;;2255002;61;20441;-63
2023/01/05 02:24:05;0.00;0.00;0.62;0.00;0.00;0.62;4.07;2.30;;;22.50;28.30;;;;;;2254639;61;20374;-63
2023/01/05 02:27:38;0.00;0.00;0.62;0.00;0.00;0.62;4.90;2.03;;;22.50;28.40;;;;;;2244186;61;20375;-64
2023/01/05 02:31:03;0.00;0.00;0.62;0.00;0.00;0.62;6.00;2.47;;;22.40;28.30;;;;;;2255197;61;20381;-63
2023/01/05 02:34:07;0.00;0.00;0.62;0.00;0.00;0.62;5.97;2.33;;;22.30;28.40;;;;;;2255352;61;20856;-64
2023/01/05 02:36:58;0.00;0.00;0.62;0.00;0.00;0.62;7.33;2.33;;;22.30;28.60;;;;;;2255540;61;20468;-65
2023/01/05 02:39:52;0.00;0.00;0.62;0.00;0.00;0.62;7.03;2.67;;;22.20;28.70;;;;;;2255243;61;20405;-64
2023/01/05 02:42:40;0.00;0.00;0.62;0.00;0.00;0.62;5.67;2.10;;;22.20;28.80;;;;;;2255424;61;20366;-64
2023/01/05 02:45:25;0.00;0.00;0.62;0.00;0.00;0.62;6.80;3.10;;;22.10;28.80;;;;;;2252211;61;20805;-64
2023/01/05 02:48:15;0.00;0.00;0.62;0.00;0.00;0.62;5.07;2.77;;;22.10;28.90;;;;;;2255774;61;20473;-64
2023/01/05 02:51:07;0.00;0.00;0.62;0.00;0.00;0.62;10.93;2.90;;;22.10;29.00;;;;;;2256114;61;20792;-64
2023/01/05 02:53:58;0.00;0.00;0.62;0.00;0.00;0.62;6.60;2.70;;;22.00;29.00;;;;;;2254913;61;20417;-64
2023/01/05 02:56:51;0.00;0.00;0.62;0.00;0.00;0.62;6.83;2.37;;;22.00;29.10;;;;;;2255816;61;20493;-64
2023/01/05 02:59:41;0.00;0.00;0.62;0.00;0.00;0.62;5.57;2.10;;;22.00;29.20;;;;;;2255652;61;20413;-64
2023/01/05 03:02:30;0.00;0.00;0.62;0.00;0.00;0.62;6.10;2.77;;;21.90;29.20;;;;;;2255600;61;20374;-64
2023/01/05 03:05:22;0.00;0.00;0.62;0.00;0.00;0.62;8.30;2.20;;;21.90;29.30;;;;;;2255873;61;20949;-63
2023/01/05 03:08:20;0.00;0.00;0.62;0.00;0.00;0.62;4.83;2.07;;;21.80;29.20;;;;;;2255458;61;20402;-63
2023/01/05 03:14:19;0.00;0.00;0.62;0.00;0.00;0.62;5.87;1.93;;;21.80;29.40;;;;;;2255554;61;20451;-62
2023/01/05 03:17:10;0.00;0.00;0.62;0.00;0.00;0.62;5.20;2.23;;;21.80;29.50;;;;;;2255408;61;20377;-62
2023/01/05 03:20:00;0.00;0.00;0.62;0.00;0.00;0.62;5.90;2.77;;;21.70;29.50;;;;;;2255431;61;20393;-62
2023/01/05 03:38:23;0.00;0.00;0.62;0.00;0.00;0.62;7.83;2.67;;;21.70;29.60;;;;;;2254865;61;20357;-63
2023/01/05 03:41:12;0.00;0.00;0.62;0.00;0.00;0.62;6.80;2.20;;;21.70;29.70;;;;;;2255392;61;20385;-63
2023/01/05 03:43:58;0.00;0.00;0.62;0.00;0.00;0.62;6.90;2.77;;;21.60;29.50;;;;;;2255251;61;20450;-64
2023/01/05 03:46:43;0.00;0.00;0.62;0.00;0.00;0.62;5.90;1.80;;;21.60;29.60;;;;;;2255522;61;20381;-63
2023/01/05 03:49:29;0.00;0.00;0.62;0.00;0.00;0.62;4.77;2.07;;;21.60;29.60;;;;;;2252571;61;20385;-63
2023/01/05 03:52:16;0.00;0.00;0.62;0.00;0.00;0.62;6.20;2.30;;;21.60;29.60;;;;;;2254970;61;20754;-64
2023/01/05 03:55:03;0.00;0.00;0.62;0.00;0.00;0.62;7.17;2.33;;;21.60;29.70;;;;;;2255747;61;20946;-64
2023/01/05 03:57:49;0.00;0.00;0.62;0.00;0.00;0.62;8.60;2.20;;;21.60;29.70;;;;;;2255591;61;20931;-63
2023/01/05 04:00:34;0.00;0.00;0.62;0.00;0.00;0.62;5.07;2.40;;;21.60;29.70;;;;;;2255048;61;20369;-63
2023/01/05 04:03:25;0.00;0.00;0.62;0.00;0.00;0.62;7.17;2.60;;;21.60;29.80;;;;;;2255239;61;20992;-62
2023/01/05 04:06:11;0.00;0.00;0.62;0.00;0.00;0.62;7.23;2.10;;;21.60;29.80;;;;;;2255207;61;20392;-62
2023/01/05 04:08:59;0.00;0.00;0.62;0.00;0.00;0.62;6.23;2.67;;;21.60;29.80;;;;;;2255530;61;20910;-63
2023/01/05 04:11:46;0.00;0.00;0.62;0.00;0.00;0.62;8.10;2.17;;;21.50;29.70;;;;;;2255779;61;20354;-64
2023/01/05 04:14:31;0.00;0.00;0.62;0.00;0.00;0.62;10.43;2.30;;;21.50;29.70;;;;;;2252095;61;20369;-62
2023/01/05 04:17:17;0.00;0.00;0.62;0.00;0.00;0.62;8.00;2.40;;;21.50;29.70;;;;;;2255242;61;20377;-63
2023/01/05 04:20:04;0.00;0.00;0.62;0.00;0.00;0.62;7.73;2.30;;;21.50;29.80;;;;;;2255720;61;20389;-63
2023/01/05 04:22:50;0.00;0.00;0.62;0.00;0.00;0.62;5.13;2.13;;;21.50;29.70;;;;;;2255034;61;20450;-63
2023/01/05 04:25:37;0.00;0.00;0.62;0.00;0.00;0.62;5.60;2.30;;;21.50;29.70;;;;;;2255073;61;20378;-63
2023/01/05 04:28:35;0.00;0.00;0.62;0.00;0.00;0.62;6.70;2.80;;;21.50;29.70;;;;;;2255393;61;20394;-62
2023/01/05 04:31:20;0.00;0.00;0.62;0.00;0.00;0.62;6.53;2.53;;;21.50;29.80;;;;;;2252740;61;20506;-63
2023/01/05 04:34:06;0.00;0.00;0.62;0.00;0.00;0.62;6.23;2.47;;;21.50;29.70;;;;;;2255034;61;20775;-62
2023/01/05 04:36:51;0.00;0.00;0.62;0.00;0.00;0.62;7.67;3.13;;;21.50;29.70;;;;;;2255364;61;20365;-63
2023/01/05 04:39:38;0.00;0.00;0.62;0.00;0.00;0.62;4.03;2.13;;;21.50;29.70;;;;;;2255017;61;20933;-65
2023/01/05 04:42:23;0.00;0.00;0.62;0.00;0.00;0.62;4.90;2.30;;;21.50;29.70;;;;;;2255581;61;20513;-63
2023/01/05 04:45:13;0.00;0.00;0.62;0.00;0.00;0.62;7.00;2.60;;;21.50;29.80;;;;;;2254672;61;20440;-62
2023/01/05 04:47:58;0.00;0.00;0.62;0.00;0.00;0.62;5.00;2.70;;;21.50;29.80;;;;;;2255124;61;20898;-62
2023/01/05 04:50:43;0.00;0.00;0.62;0.00;0.00;0.62;6.60;2.20;;;21.40;29.80;;;;;;2255244;61;20450;-63
2023/01/05 04:53:29;0.00;0.00;0.62;0.00;0.00;0.62;7.20;2.63;;;21.40;29.80;;;;;;2255211;61;20875;-63
2023/01/05 04:56:14;0.00;0.00;0.62;0.00;0.00;0.62;6.10;2.50;;;21.40;29.80;;;;;;2255115;61;20441;-63
2023/01/05 04:59:01;0.00;0.00;0.62;0.00;0.00;0.62;5.37;2.17;;;21.40;29.80;;;;;;2254821;61;20385;-64
2023/01/05 05:01:49;0.00;0.00;0.62;0.00;0.00;0.62;8.43;2.80;;;21.40;29.80;;;;;;2255474;61;20445;-64
2023/01/05 05:04:34;0.00;0.00;0.62;0.00;0.00;0.62;4.90;2.30;;;21.40;29.90;;;;;;2255884;61;20512;-65
2023/01/05 05:07:21;0.00;0.00;0.62;0.00;0.00;0.62;4.90;2.43;;;21.40;29.90;;;;;;2254684;61;20357;-64
2023/01/05 05:10:08;0.00;0.00;0.62;0.00;0.00;0.62;5.03;2.67;;;21.30;29.90;;;;;;2255631;61;20362;-64
2023/01/05 05:12:53;0.00;0.00;0.62;0.00;0.00;0.62;6.17;2.30;;;21.30;29.90;;;;;;2255205;61;20778;-63
2023/01/05 05:15:38;0.00;0.00;0.62;0.00;0.00;0.62;5.20;1.83;;;21.30;30.00;;;;;;2255264;61;20899;-64
2023/01/05 05:18:24;0.00;0.00;0.62;0.00;0.00;0.62;4.03;2.07;;;21.30;30.00;;;;;;2255119;61;20881;-64
2023/01/05 05:21:10;0.00;0.00;0.62;0.00;0.00;0.62;5.23;1.97;;;21.20;30.00;;;;;;2254532;61;20906;-64
2023/01/05 05:23:58;0.00;0.00;0.62;0.00;0.00;0.62;4.67;2.10;;;21.20;30.00;;;;;;2254925;61;20462;-64
2023/01/05 05:26:42;0.00;0.00;0.62;0.00;0.00;0.62;5.30;2.00;;;21.20;30.00;;;;;;2255343;61;20366;-64
2023/01/05 05:29:27;0.00;0.00;0.62;0.00;0.00;0.62;6.13;2.80;;;21.20;30.10;;;;;;2254901;61;20812;-64
2023/01/05 05:32:11;0.00;0.00;0.62;0.00;0.00;0.62;5.83;2.23;;;21.10;30.10;;;;;;2255714;61;20366;-64
2023/01/05 05:34:58;0.00;0.00;0.62;0.00;0.00;0.62;7.23;2.20;;;21.10;30.10;;;;;;2255430;61;20658;-66
2023/01/05 05:37:43;0.00;0.00;0.62;0.00;0.00;0.62;5.77;2.10;;;21.10;30.10;;;;;;2255807;61;20443;-65
2023/01/05 05:40:28;0.00;0.00;0.62;0.00;0.00;0.62;5.80;2.13;;;21.10;30.20;;;;;;2255376;61;20384;-64
2023/01/05 05:43:13;0.00;0.00;0.62;0.00;0.00;0.62;4.00;2.10;;;21.10;30.20;;;;;;2254801;61;20485;-64
2023/01/05 05:45:57;0.00;0.00;0.62;0.00;0.00;0.62;6.87;2.30;;;21.00;30.10;;;;;;2255540;61;20417;-64
2023/01/05 05:48:42;0.00;0.00;0.62;0.00;0.00;0.62;7.03;2.30;;;21.00;30.20;;;;;;2255527;61;20362;-64
2023/01/05 05:51:28;0.00;0.00;0.62;0.00;0.00;0.62;6.17;2.40;;;21.00;30.20;;;;;;2254847;61;20417;-65
2023/01/05 05:54:15;0.00;0.00;0.62;0.00;0.00;0.62;3.50;1.70;;;21.00;30.20;;;;;;2255460;61;20412;-64
2023/01/05 05:57:00;0.00;0.00;0.62;0.00;0.00;0.62;6.07;2.00;;;21.00;30.20;;;;;;2254754;61;20446;-64
2023/01/05 05:59:44;0.00;0.00;0.62;0.00;0.00;0.62;6.07;2.23;;;21.00;30.20;;;;;;2256005;61;20465;-64
2023/01/05 06:02:29;0.00;0.00;0.62;0.00;0.00;0.62;7.93;3.03;;;21.00;30.20;;;;;;2256299;61;20358;-64
2023/01/05 06:05:14;0.00;0.00;0.62;0.00;0.00;0.62;6.40;2.23;;;21.00;30.40;;;;;;2255576;61;20452;-64
2023/01/05 06:08:00;0.00;0.00;0.62;0.00;0.00;0.62;5.83;2.63;;;21.00;30.40;;;;;;2256385;61;20886;-64
2023/01/05 06:10:47;0.00;0.00;0.62;0.00;0.00;0.62;5.30;2.40;;;20.90;30.40;;;;;;2256231;61;20370;-64
2023/01/05 06:13:31;0.00;0.00;0.62;0.00;0.00;0.62;6.03;2.80;;;21.00;30.50;;;;;;2255595;61;20397;-64
2023/01/05 06:16:16;0.00;0.00;0.62;0.00;0.00;0.62;4.80;2.37;;;20.90;30.40;;;;;;2256223;61;20385;-63
2023/01/05 06:19:01;0.00;0.00;0.62;0.00;0.00;0.62;6.77;2.40;;;20.90;30.40;;;;;;2256102;61;20382;-63
2023/01/05 06:21:46;0.00;0.00;0.62;0.00;0.00;0.62;5.07;2.60;;;20.90;30.50;;;;;;2256087;61;20365;-63
2023/01/05 06:24:32;0.00;0.00;0.62;0.00;0.00;0.62;5.90;2.37;;;20.90;30.50;;;;;;2255976;61;20894;-64
2023/01/05 06:27:16;0.00;0.00;0.62;0.00;0.00;0.62;6.17;2.37;;;20.90;30.50;;;;;;2255806;61;20508;-63
2023/01/05 06:30:01;0.00;0.00;0.62;0.00;0.00;0.62;6.33;3.17;;;20.90;30.50;;;;;;2256471;61;20374;-62
2023/01/05 06:32:45;0.00;0.00;0.62;0.00;0.00;0.62;3.63;1.87;;;20.90;30.60;;;;;;2255942;61;20460;-64
2023/01/05 06:35:31;0.00;0.00;0.62;0.00;0.00;0.62;6.77;2.43;;;20.90;30.60;;;;;;2255768;61;20389;-61
2023/01/05 06:38:16;0.00;0.00;0.62;0.00;0.00;0.62;4.53;2.60;;;20.90;30.60;;;;;;2255990;61;20369;-63
2023/01/05 06:41:02;0.00;0.00;0.62;0.00;0.00;0.62;4.60;2.03;;;20.90;30.60;;;;;;2255655;61;20385;-63
2023/01/05 06:43:47;0.00;0.00;0.62;0.00;0.00;0.62;5.10;2.03;;;20.80;30.50;;;;;;2255662;61;20431;-64
2023/01/05 06:46:31;0.00;0.00;0.62;0.00;0.00;0.62;5.77;2.37;;;20.80;30.60;;;;;;2255454;61;20574;-63
2023/01/05 06:49:16;0.00;0.00;0.62;0.00;0.00;0.62;5.50;1.90;;;20.80;30.50;;;;;;2255859;61;20354;-64
2023/01/05 06:52:00;0.00;0.00;0.62;0.00;0.00;0.62;5.93;1.93;;;20.90;30.60;;;;;;2256078;61;20773;-63
2023/01/05 06:54:45;0.00;0.00;0.62;0.00;0.00;0.62;4.90;2.10;;;20.80;30.60;;;;;;2256120;61;20910;-63
2023/01/05 06:57:32;0.00;0.00;0.62;0.00;0.00;0.62;5.63;1.83;;;20.80;30.60;;;;;;2255202;61;20902;-63
2023/01/05 07:00:17;0.00;0.00;0.62;0.00;0.00;0.62;4.17;1.83;;;20.90;30.70;;;;;;2255707;61;20389;-62
2023/01/05 07:02:44;0.00;0.00;0.62;0.00;0.00;0.62;5.30;2.03;;;20.80;30.60;;;;;;2255973;61;20709;-63
2023/01/05 07:05:10;0.00;0.00;0.62;0.00;0.00;0.62;6.20;2.57;;;20.80;30.60;;;;;;2255436;61;20371;-63
2023/01/05 07:07:55;0.00;0.00;0.62;0.00;0.00;0.62;6.10;1.80;;;20.80;30.50;;;;;;2255937;61;20401;-63
2023/01/05 07:10:40;0.00;0.00;0.62;0.00;0.00;0.62;8.80;2.87;;;20.80;30.40;;;;;;2256083;61;20362;-63
2023/01/05 07:13:26;0.00;0.00;0.62;0.00;0.00;0.62;6.20;3.00;;;20.80;30.40;;;;;;2255448;61;20369;-62
2023/01/05 07:16:11;0.00;0.00;0.62;0.00;0.00;0.62;4.10;1.90;;;20.80;30.50;;;;;;2255774;61;20386;-63
2023/01/05 07:18:55;0.00;0.00;0.62;0.00;0.00;0.62;4.87;1.73;;;20.80;30.50;;;;;;2255623;61;20440;-63
2023/01/05 07:21:40;0.00;0.00;0.62;0.00;0.00;0.62;7.83;2.40;;;20.80;30.60;;;;;;2256224;61;20799;-62
2023/01/05 07:24:24;0.00;0.00;0.62;0.00;0.00;0.62;4.67;2.27;;;20.80;30.70;;;;;;2255711;61;20361;-62
2023/01/05 07:27:09;0.00;0.00;0.62;0.00;0.00;0.62;4.47;1.87;;;20.80;30.50;;;;;;2255426;61;20362;-63
2023/01/05 07:29:55;0.00;0.00;0.62;0.00;0.00;0.62;8.73;2.93;;;20.70;30.50;;;;;;2256001;61;20358;-63
2023/01/05 07:32:42;0.00;0.00;0.62;0.00;0.00;0.62;5.60;1.93;;;20.80;31.20;;;;;;2255797;61;20362;-64
2023/01/05 07:35:27;0.00;0.00;0.62;0.00;0.00;0.62;4.30;2.30;;;20.70;30.60;;;;;;2255539;61;20767;-63
2023/01/05 07:38:12;0.00;0.00;0.62;0.00;0.00;0.62;3.83;2.33;;;20.70;30.60;;;;;;2255961;61;20446;-63
2023/01/05 07:40:58;0.00;0.00;0.62;0.00;0.00;0.62;8.00;2.83;;;20.70;30.70;;;;;;2255770;61;20853;-64
2023/01/05 07:43:43;0.00;0.00;0.62;0.00;0.00;0.62;8.77;3.30;;;20.70;30.70;;;;;;2255947;61;20361;-63
2023/01/05 07:46:29;0.00;0.00;0.62;0.00;0.00;0.62;5.70;3.00;;;20.60;30.80;;;;;;2255398;61;20463;-63
2023/01/05 07:49:14;0.00;0.00;0.62;0.00;0.00;0.62;4.70;1.87;;;20.60;30.80;;;;;;2255372;61;20423;-64
2023/01/05 07:51:59;0.00;0.00;0.62;0.00;0.00;0.62;5.00;2.23;;;20.60;30.90;;;;;;2255946;61;20428;-64
2023/01/05 07:54:44;0.00;0.00;0.62;0.00;0.00;0.62;6.33;2.30;;;20.60;30.80;;;;;;2255156;61;20813;-58
2023/01/05 07:57:28;0.00;0.00;0.62;0.00;0.00;0.62;7.13;2.57;;;20.60;30.90;;;;;;2255436;61;20404;-57
2023/01/05 08:00:14;0.00;0.00;0.62;0.00;0.00;0.62;4.20;2.10;;;20.50;30.90;;;;;;2255769;61;20455;-51
2023/01/05 08:03:00;0.00;0.00;0.62;0.00;0.00;0.62;8.50;2.43;;;20.50;30.90;;;;;;2255820;61;20420;-60
2023/01/05 08:05:45;0.00;0.00;0.62;0.00;0.00;0.62;4.63;1.77;;;20.50;31.00;;;;;;2255398;61;20459;-58
2023/01/05 08:08:30;0.00;0.00;0.62;0.00;0.00;0.62;5.10;2.03;;;20.50;31.10;;;;;;2254542;61;20467;-56
2023/01/05 08:11:18;0.00;0.00;0.62;0.00;0.00;0.62;4.23;1.77;;;20.50;31.10;;;;;;2292094;53;20366;-55
2023/01/05 08:14:04;0.00;0.00;0.62;0.00;0.00;0.62;4.53;2.10;;;20.60;31.20;;;;;;2255821;61;20374;-63
2023/01/05 08:16:50;0.00;0.00;0.62;0.00;0.00;0.62;7.80;2.20;;;20.60;31.30;;;;;;2255390;61;20373;-64
2023/01/05 08:19:36;0.00;0.00;0.62;0.00;0.00;0.62;6.33;1.90;;;20.60;31.20;;;;;;2255585;61;20448;-62
2023/01/05 08:22:20;0.00;0.00;0.62;0.00;0.00;0.62;5.77;2.37;;;20.60;31.30;;;;;;2255518;61;20835;-61
2023/01/05 08:25:06;0.00;0.00;0.62;0.00;0.00;0.62;3.53;2.13;;;20.60;31.30;;;;;;2255709;61;20493;-61
2023/01/05 08:27:51;0.00;0.00;0.62;0.00;0.00;0.62;5.43;2.03;;;20.60;31.30;;;;;;2255720;61;20357;-60
2023/01/05 08:30:35;0.00;0.00;0.62;0.00;0.00;0.62;5.30;2.37;;;20.60;31.30;;;;;;2255049;61;20377;-61
2023/01/05 08:33:20;0.00;0.00;0.62;0.00;0.00;0.62;4.33;1.90;;;20.60;31.30;;;;;;2254781;61;20811;-58
2023/01/05 08:36:11;0.00;0.00;0.62;0.00;0.00;0.62;6.23;2.43;;;20.60;31.30;;;;;;2255974;61;20389;-61
2023/01/05 08:38:56;0.00;0.00;0.62;0.00;0.00;0.62;5.20;2.07;;;20.60;31.20;;;;;;2255304;61;20386;-59
2023/01/05 08:41:41;0.00;0.00;0.62;0.00;0.00;0.62;4.57;1.87;;;20.70;31.30;;;;;;2252170;61;20369;-58
2023/01/05 08:44:26;0.00;0.00;0.62;0.00;0.00;0.62;6.50;2.40;;;20.70;31.90;;;;;;2255342;61;20370;-65
2023/01/05 08:47:11;0.00;0.00;0.62;0.00;0.00;0.62;5.17;2.43;;;20.70;31.20;;;;;;2255680;61;20890;-61
2023/01/05 08:49:59;0.00;0.00;0.62;0.00;0.00;0.62;5.73;2.10;;;20.70;31.20;;;;;;2255162;61;20370;-59
2023/01/05 08:52:46;0.00;0.00;0.62;0.00;0.00;0.62;5.70;2.60;;;20.70;31.20;;;;;;2255446;61;20366;-62
2023/01/05 08:55:32;0.00;0.00;0.62;0.00;0.00;0.62;4.77;2.40;;;20.70;31.20;;;;;;2254864;61;21029;-62
2023/01/05 08:58:21;0.00;0.00;0.62;0.00;0.00;0.62;3.93;2.17;;;20.80;31.30;;;;;;2255706;61;20369;-58
2023/01/05 09:01:08;0.00;0.00;0.62;0.00;0.00;0.62;7.63;3.00;;;20.80;31.30;;;;;;2252732;61;20410;-61
2023/01/05 09:03:55;0.00;0.00;0.62;0.00;0.00;0.62;8.07;2.83;;;20.80;31.30;;;;;;2255138;61;20378;-57
2023/01/05 09:06:43;0.00;0.00;0.62;0.00;0.00;0.62;5.90;3.00;;;20.80;31.20;;;;;;2253354;61;21081;-57
2023/01/05 09:09:34;0.00;0.00;0.62;0.00;0.00;0.62;6.63;2.97;;;20.80;31.20;;;;;;2260422;61;20956;-62
2023/01/05 09:12:21;0.00;0.00;0.62;0.00;0.00;0.62;8.60;2.57;;;20.80;31.20;;;;;;2255094;61;20385;-63
2023/01/05 09:15:08;0.00;0.00;0.62;0.00;0.00;0.62;6.20;2.30;;;20.80;31.20;;;;;;2255514;61;21288;-60
2023/01/05 09:17:54;0.00;0.00;0.62;0.00;0.00;0.62;2.40;1.67;;;20.80;31.20;;;;;;2252036;61;20404;-61
2023/01/05 09:20:40;0.00;0.00;0.62;0.00;0.00;0.62;4.20;1.80;;;20.90;31.30;;;;;;2255108;61;20401;-62
2023/01/05 09:23:32;0.00;0.00;0.62;0.00;0.00;0.62;5.90;2.67;;;20.80;31.20;;;;;;2255510;61;20369;-59
2023/01/05 09:26:22;0.00;0.00;0.62;0.00;0.00;0.62;5.70;2.23;;;20.90;31.30;;;;;;2255250;61;20382;-60
2023/01/05 09:29:10;0.00;0.00;0.62;0.00;0.00;0.62;8.13;2.60;;;20.90;31.30;;;;;;2255177;61;20392;-62
2023/01/05 09:31:57;0.00;0.00;0.62;0.00;0.00;0.62;6.27;2.50;;;20.90;31.20;;;;;;2255301;61;20365;-60
2023/01/05 09:34:42;0.00;0.00;0.62;0.00;0.00;0.62;4.33;2.03;;;20.90;31.20;;;;;;2255445;61;20381;-58
2023/01/05 09:37:27;0.00;0.00;0.62;0.00;0.00;0.62;3.70;1.93;;;20.90;31.10;;;;;;2252422;61;20369;-61
2023/01/05 09:40:12;0.00;0.00;0.62;0.00;0.00;0.62;6.67;2.73;;;20.90;31.70;;;;;;2254624;61;20390;-62
2023/01/05 09:42:59;0.00;0.00;0.62;0.00;0.00;0.62;4.67;1.97;;;20.90;31.00;;;;;;2255212;61;20362;-63
2023/01/05 09:45:47;0.00;0.00;0.62;0.00;0.00;0.62;3.40;1.63;;;20.90;31.00;;;;;;2255785;61;20448;-63
2023/01/05 09:48:38;0.00;0.00;0.62;0.00;0.00;0.62;2.97;1.13;;;21.00;31.10;;;;;;2255257;61;20357;-60
2023/01/05 09:51:24;0.00;0.00;0.62;0.00;0.00;0.62;2.63;1.23;;;21.00;31.10;;;;;;2255425;61;20898;-63
2023/01/05 09:54:16;0.00;0.00;0.62;0.00;0.00;0.62;3.13;1.73;;;21.10;31.10;;;;;;2255228;61;20879;-61
2023/01/05 09:57:02;0.00;0.00;0.62;0.00;0.00;0.62;2.57;1.53;;;21.10;31.10;;;;;;2255707;61;20354;-63
2023/01/05 09:59:52;0.00;0.00;0.62;0.00;0.00;0.62;3.10;1.37;;;21.20;31.10;;;;;;2255484;61;20805;-65
2023/01/05 10:02:46;0.00;0.00;0.62;0.00;0.00;0.62;2.23;1.17;;;21.20;31.00;;;;;;2254947;61;20461;-63
2023/01/05 10:05:40;0.00;0.00;0.62;0.00;0.00;0.62;3.83;1.47;;;21.30;31.00;;;;;;2255579;61;20378;-63
2023/01/05 10:08:35;0.00;0.00;0.62;0.00;0.00;0.62;2.23;1.20;;;21.30;31.00;;;;;;2255644;61;20362;-65
2023/01/05 10:14:41;0.00;0.00;0.62;0.00;0.00;0.62;2.23;1.20;;;21.40;30.90;;;;;;2255296;61;20405;-66
2023/01/05 10:17:32;0.00;0.00;0.62;0.00;0.00;0.62;3.50;1.60;;;21.50;30.90;;;;;;2254680;61;20362;-66
2023/01/05 10:20:27;0.00;0.00;0.62;0.00;0.00;0.62;4.23;2.00;;;21.60;30.80;;;;;;2254925;61;20425;-65
2023/01/05 10:23:36;0.00;0.00;0.62;0.00;0.00;0.62;9.03;3.50;;;21.60;30.80;;;;;;2255412;61;20409;-66
2023/01/05 10:26:28;0.00;0.00;0.62;0.00;0.00;0.62;7.20;3.73;;;21.70;30.80;;;;;;2255831;61;20386;-65
2023/01/05 10:29:18;0.00;0.00;0.62;0.00;0.00;0.62;6.93;3.37;;;21.70;30.70;;;;;;2256300;61;20438;-64
2023/01/05 10:32:14;0.00;0.00;0.62;0.00;0.00;0.62;6.80;3.07;;;21.80;30.70;;;;;;2254678;61;20374;-64
2023/01/05 10:35:09;0.00;0.00;0.62;0.00;0.00;0.62;7.80;2.60;;;21.90;30.70;;;;;;2256818;61;20389;-62
2023/01/05 10:38:05;0.00;0.00;0.62;0.00;0.00;0.62;5.60;2.87;;;21.90;30.70;;;;;;2259938;61;20366;-65
2023/01/05 10:41:01;0.00;0.00;0.62;0.00;0.00;0.62;4.10;2.43;;;22.00;30.70;;;;;;2255253;61;20393;-62
2023/01/05 10:44:17;0.00;0.00;0.62;0.00;0.00;0.62;4.40;2.87;;;22.00;30.60;;;;;;2253759;61;20370;-63
2023/01/05 10:47:02;0.00;0.00;0.62;0.00;0.00;0.62;5.70;3.07;;;22.00;30.60;;;;;;2319277;58;20978;-64
2023/01/05 10:49:49;0.00;0.00;0.62;0.00;0.00;0.62;4.50;2.43;;;22.10;30.60;;;;;;2256354;61;20366;-61
2023/01/05 10:52:35;0.00;0.00;0.62;0.00;0.00;0.62;7.17;2.97;;;22.10;30.50;;;;;;2255924;61;20374;-63
2023/01/05 10:55:21;0.00;0.00;0.62;0.00;0.00;0.62;8.13;2.77;;;22.10;30.50;;;;;;2255919;61;20401;-58
2023/01/05 10:58:24;0.00;0.00;0.62;0.00;0.00;0.62;5.60;3.50;;;22.20;30.60;;;;;;2256460;61;20390;-60
2023/01/05 11:01:22;0.00;0.00;0.62;0.00;0.00;0.62;4.20;3.13;;;22.20;30.50;;;;;;2252270;61;20382;-61
2023/01/05 11:04:13;0.00;0.00;0.62;0.00;0.00;0.62;5.00;3.13;;;22.20;30.50;;;;;;2264083;61;20417;-57
2023/01/05 11:07:03;0.00;0.00;0.62;0.00;0.00;0.62;4.20;2.87;;;22.20;30.60;;;;;;2255305;61;20370;-60
2023/01/05 11:09:49;0.00;0.00;0.62;0.00;0.00;0.62;4.60;3.60;;;22.30;30.70;;;;;;2254346;61;20827;-60
2023/01/05 11:12:34;0.00;0.00;0.62;0.00;0.00;0.62;5.87;3.67;;;22.30;30.60;;;;;;2255882;61;20374;-62
2023/01/05 11:15:20;0.00;0.00;0.62;0.00;0.00;0.62;4.10;3.67;;;22.40;30.60;;;;;;2256181;61;20432;-58
2023/01/05 11:18:06;0.00;0.00;0.62;0.00;0.00;0.62;5.47;3.47;;;22.40;30.40;;;;;;2257053;61;20383;-59
2023/01/05 11:21:13;0.00;0.00;0.62;0.00;0.00;0.62;4.03;2.67;;;22.50;30.40;;;;;;2256587;61;20413;-53
2023/01/05 11:23:58;0.00;0.00;0.62;0.00;0.00;0.62;5.87;3.47;;;22.50;30.30;;;;;;2256549;61;20767;-62
2023/01/05 11:26:51;0.00;0.00;0.62;0.00;0.00;0.62;4.40;3.00;;;22.60;30.40;;;;;;2257145;61;20405;-62
2023/01/05 11:29:36;0.00;0.00;0.62;0.00;0.00;0.62;4.40;3.17;;;22.60;30.30;;;;;;2256045;61;20401;-59
2023/01/05 11:32:20;0.00;0.00;0.62;0.00;0.00;0.62;3.73;2.83;;;22.60;30.20;;;;;;2255729;61;20446;-62
2023/01/05 11:35:24;0.00;0.00;0.62;0.00;0.00;0.62;4.13;2.80;;;22.60;30.20;;;;;;2255823;61;20466;-61
2023/01/05 11:38:22;0.00;0.00;0.62;0.00;0.00;0.62;5.43;3.10;;;22.70;30.20;;;;;;2255671;61;20889;-62